createdAt,value
2023-02-26T00:00:15.407Z,3.50
2023-02-26T00:02:46.589Z,3.40
2023-02-26T00:05:16.095Z,3.40
2023-02-26T00:07:44.754Z,3.40
2023-02-26T00:10:16.265Z,3.40
2023-02-26T00:12:45.590Z,3.40
2023-02-26T00:15:17.867Z,3.30
2023-02-26T00:17:54.732Z,3.30
2023-02-26T00:20:24.553Z,3.40
2023-02-26T00:22:53.589Z,3.40
2023-02-26T00:25:21.909Z,3.30
2023-02-26T00:27:50.945Z,3.30
2023-02-26T00:30:20.226Z,3.30
2023-02-26T00:32:50.648Z,3.30
2023-02-26T00:35:19.556Z,3.20
2023-02-26T00:38:02.990Z,3.20
2023-02-26T00:40:38.907Z,3.20
2023-02-26T00:43:09.098Z,3.10
2023-02-26T00:45:40.120Z,3.10
2023-02-26T00:48:37.771Z,3.00
2023-02-26T00:51:14.008Z,3.00
2023-02-26T00:53:49.266Z,3.00
2023-02-26T00:56:17.646Z,3.00
2023-02-26T00:58:45.916Z,3.00
2023-02-26T01:01:14.295Z,3.00
2023-02-26T01:03:44.862Z,2.90
2023-02-26T01:06:16.930Z,2.90
2023-02-26T01:08:54.730Z,2.90
2023-02-26T01:11:26.286Z,2.90
2023-02-26T01:13:55.260Z,2.90
2023-02-26T01:16:29.679Z,2.80
2023-02-26T01:19:03.584Z,2.80
2023-02-26T01:21:35.879Z,2.70
2023-02-26T01:24:07.072Z,2.70
2023-02-26T01:26:35.670Z,2.70
2023-02-26T01:29:04.580Z,2.70
2023-02-26T01:31:44.209Z,2.70
2023-02-26T01:34:20.048Z,2.70
2023-02-26T01:36:55.943Z,2.70
2023-02-26T01:39:31.313Z,2.60
2023-02-26T01:42:05.517Z,2.60
2023-02-26T01:44:41.015Z,2.60
2023-02-26T01:47:18.727Z,2.70
2023-02-26T01:49:49.151Z,2.70
2023-02-26T01:53:05.290Z,2.70
2023-02-26T01:55:33.714Z,2.60
2023-02-26T01:58:03.387Z,2.60
2023-02-26T02:00:32.616Z,2.60
2023-02-26T02:03:02.001Z,2.70
2023-02-26T02:05:35.767Z,2.60
2023-02-26T02:08:04.369Z,2.50
2023-02-26T02:10:33.630Z,2.50
2023-02-26T02:13:11.946Z,2.50
2023-02-26T02:15:46.701Z,2.50
2023-02-26T02:18:22.573Z,2.50
2023-02-26T02:21:25.139Z,2.50
2023-02-26T02:23:59.210Z,2.50
2023-02-26T02:26:44.763Z,2.50
2023-02-26T02:29:51.574Z,2.50
2023-02-26T02:32:25.893Z,2.50
2023-02-26T02:34:59.878Z,2.50
2023-02-26T02:37:33.658Z,2.50
2023-02-26T02:40:06.573Z,2.50
2023-02-26T02:42:38.888Z,2.50
2023-02-26T02:45:11.667Z,2.50
2023-02-26T02:47:44.181Z,2.50
2023-02-26T02:50:16.652Z,2.50
2023-02-26T02:52:51.872Z,2.50
2023-02-26T02:55:25.138Z,2.50
2023-02-26T02:58:00.817Z,2.50
2023-02-26T03:00:34.156Z,2.50
2023-02-26T03:03:10.528Z,2.50
2023-02-26T03:05:38.991Z,2.50
2023-02-26T03:08:11.070Z,2.50
2023-02-26T03:10:39.785Z,2.50
2023-02-26T03:13:08.367Z,2.50
2023-02-26T03:15:43.856Z,2.50
2023-02-26T03:18:24.575Z,2.50
2023-02-26T03:21:01.778Z,2.40
2023-02-26T03:23:37.187Z,2.40
2023-02-26T03:26:14.091Z,2.40
2023-02-26T03:28:51.938Z,2.50
2023-02-26T03:31:28.001Z,2.50
2023-02-26T03:34:01.428Z,2.50
2023-02-26T03:36:36.680Z,2.50
2023-02-26T03:39:23.668Z,2.50
2023-02-26T03:42:00.533Z,2.50
2023-02-26T03:44:38.643Z,2.50
2023-02-26T03:47:09.939Z,2.50
2023-02-26T03:49:43.608Z,2.50
2023-02-26T03:52:15.179Z,2.50
2023-02-26T03:55:06.341Z,2.40
2023-02-26T03:58:01.046Z,2.50
2023-02-26T04:00:50.322Z,2.50
2023-02-26T04:03:26.387Z,2.50
2023-02-26T04:05:56.751Z,2.40
2023-02-26T04:08:26.899Z,2.40
2023-02-26T04:10:58.996Z,2.50
2023-02-26T04:13:28.494Z,2.50
2023-02-26T04:15:57.895Z,2.50
2023-02-26T04:18:26.748Z,2.50
2023-02-26T04:20:56.503Z,2.50
2023-02-26T04:23:24.911Z,2.50
2023-02-26T04:25:53.411Z,2.50
2023-02-26T04:28:21.713Z,2.40
2023-02-26T04:30:50.254Z,2.40
2023-02-26T04:33:19.391Z,2.40
2023-02-26T04:35:49.839Z,2.40
2023-02-26T04:38:19.710Z,2.50
2023-02-26T04:40:48.495Z,2.50
2023-02-26T04:43:20.891Z,2.50
2023-02-26T04:46:27.749Z,2.50
2023-02-26T04:48:56.660Z,2.50
2023-02-26T04:51:25.440Z,2.50
2023-02-26T04:53:55.511Z,2.50
2023-02-26T04:56:24.155Z,2.50
2023-02-26T04:58:52.667Z,2.40
2023-02-26T05:01:26.369Z,2.40
2023-02-26T05:03:54.806Z,2.40
2023-02-26T05:06:23.493Z,2.40
2023-02-26T05:08:52.086Z,2.40
2023-02-26T05:11:22.102Z,2.40
2023-02-26T05:13:50.549Z,2.40
2023-02-26T05:16:18.950Z,2.50
2023-02-26T05:18:47.355Z,2.50
2023-02-26T05:21:15.701Z,2.50
2023-02-26T05:23:44.111Z,2.50
2023-02-26T05:26:12.382Z,2.50
2023-02-26T05:28:45.838Z,2.50
2023-02-26T05:31:14.576Z,2.40
2023-02-26T05:33:43.128Z,2.40
2023-02-26T05:36:14.524Z,2.40
2023-02-26T05:38:42.853Z,2.40
2023-02-26T05:41:11.184Z,2.40
2023-02-26T05:43:39.661Z,2.40
2023-02-26T05:46:09.521Z,2.30
2023-02-26T05:48:37.936Z,2.30
2023-02-26T05:51:06.578Z,2.30
2023-02-26T05:53:35.143Z,2.20
2023-02-26T05:56:05.888Z,2.30
2023-02-26T05:58:34.342Z,2.20
2023-02-26T06:01:03.037Z,2.20
2023-02-26T06:03:32.761Z,2.10
2023-02-26T06:06:01.060Z,2.10
2023-02-26T06:08:29.425Z,2.00
2023-02-26T06:10:57.861Z,2.00
2023-02-26T06:13:28.377Z,2.00
2023-02-26T06:15:56.751Z,1.90
2023-02-26T06:18:25.097Z,1.90
2023-02-26T06:20:54.764Z,1.80
2023-02-26T06:23:23.053Z,1.90
2023-02-26T06:25:52.596Z,1.80
2023-02-26T06:28:21.447Z,1.90
2023-02-26T06:30:49.870Z,1.80
2023-02-26T06:33:18.265Z,1.90
2023-02-26T06:35:46.970Z,1.90
2023-02-26T06:38:16.999Z,1.90
2023-02-26T06:40:45.520Z,1.90
2023-02-26T06:43:13.855Z,1.80
2023-02-26T06:45:42.282Z,1.80
2023-02-26T06:48:10.568Z,1.80
2023-02-26T06:50:39.640Z,1.80
2023-02-26T06:53:08.112Z,1.70
2023-02-26T06:55:37.801Z,1.80
2023-02-26T06:58:06.071Z,1.80
2023-02-26T07:00:35.801Z,1.80
2023-02-26T07:03:04.075Z,1.80
2023-02-26T07:05:32.774Z,1.80
2023-02-26T07:08:01.138Z,1.80
2023-02-26T07:10:29.571Z,1.90
2023-02-26T07:12:59.358Z,1.90
2023-02-26T07:15:27.615Z,2.00
2023-02-26T07:17:55.956Z,2.10
2023-02-26T07:20:24.405Z,2.10
2023-02-26T07:22:52.758Z,2.10
2023-02-26T07:25:21.212Z,2.10
2023-02-26T07:27:49.485Z,2.20
2023-02-26T07:30:19.869Z,2.20
2023-02-26T07:32:48.293Z,2.30
2023-02-26T07:35:16.736Z,2.30
2023-02-26T07:37:45.252Z,2.30
2023-02-26T07:40:14.095Z,2.30
2023-02-26T07:42:42.821Z,2.40
2023-02-26T07:45:12.084Z,2.30
2023-02-26T07:47:41.794Z,2.30
2023-02-26T07:50:11.923Z,2.40
2023-02-26T07:52:40.219Z,2.40
2023-02-26T07:55:09.534Z,2.40
2023-02-26T07:57:37.875Z,2.40
2023-02-26T08:00:09.807Z,2.50
2023-02-26T08:02:42.499Z,2.50
2023-02-26T08:05:11.189Z,2.50
2023-02-26T08:07:39.546Z,2.50
2023-02-26T08:10:08.698Z,2.50
2023-02-26T08:12:36.967Z,2.50
2023-02-26T08:15:05.993Z,2.50
2023-02-26T08:17:34.526Z,2.60
2023-02-26T08:20:05.258Z,2.60
2023-02-26T08:22:34.005Z,2.60
2023-02-26T08:25:02.490Z,2.60
2023-02-26T08:27:30.778Z,2.70
2023-02-26T08:29:59.097Z,2.70
2023-02-26T08:32:29.744Z,2.70
2023-02-26T08:34:58.134Z,2.70
2023-02-26T08:37:30.574Z,2.70
2023-02-26T08:39:58.876Z,2.70
2023-02-26T08:42:27.311Z,2.70
2023-02-26T08:44:55.562Z,2.70
2023-02-26T08:47:28.697Z,2.70
2023-02-26T08:49:58.922Z,2.80
2023-02-26T08:52:28.670Z,2.70
2023-02-26T08:54:57.020Z,2.70
2023-02-26T08:57:25.359Z,2.80
2023-02-26T08:59:53.650Z,2.80
2023-02-26T09:02:21.921Z,2.80
2023-02-26T09:04:50.207Z,2.70
2023-02-26T09:07:18.516Z,2.80
2023-02-26T09:09:48.169Z,2.80
2023-02-26T09:12:16.940Z,2.80
2023-02-26T09:14:45.220Z,2.80
2023-02-26T09:17:16.099Z,2.80
2023-02-26T09:19:53.453Z,2.70
2023-02-26T09:22:21.807Z,2.80
2023-02-26T09:24:51.612Z,2.80
2023-02-26T09:27:19.993Z,2.90
2023-02-26T09:29:48.367Z,2.90
2023-02-26T09:32:16.856Z,2.90
2023-02-26T09:34:45.240Z,2.90
2023-02-26T09:37:13.609Z,2.90
2023-02-26T09:39:41.942Z,2.80
2023-02-26T09:42:18.882Z,2.90
2023-02-26T09:44:48.699Z,2.90
2023-02-26T09:47:22.399Z,2.90
2023-02-26T09:49:56.314Z,3.00
2023-02-26T09:52:30.958Z,3.00
2023-02-26T09:55:02.623Z,3.00
2023-02-26T09:57:35.048Z,3.00
2023-02-26T10:00:05.615Z,3.00
2023-02-26T10:02:46.460Z,3.00
2023-02-26T10:05:21.910Z,3.00
2023-02-26T10:07:58.931Z,3.00
2023-02-26T10:10:39.219Z,3.00
2023-02-26T10:13:20.732Z,3.00
2023-02-26T10:15:51.492Z,3.00
2023-02-26T10:18:27.928Z,3.00
2023-02-26T10:20:59.130Z,3.00
2023-02-26T10:23:33.268Z,2.90
2023-02-26T10:26:08.725Z,2.90
2023-02-26T10:29:00.908Z,2.90
2023-02-26T10:31:35.919Z,2.90
2023-02-26T10:34:16.548Z,2.90
2023-02-26T10:36:51.276Z,2.90
2023-02-26T10:39:28.117Z,2.80
2023-02-26T10:41:59.223Z,2.80
2023-02-26T10:44:37.541Z,2.90
2023-02-26T10:47:14.676Z,2.90
2023-02-26T10:49:55.686Z,2.90
2023-02-26T10:52:27.077Z,3.00
2023-02-26T10:55:21.042Z,3.00
2023-02-26T10:57:55.014Z,3.10
2023-02-26T11:00:24.895Z,3.10
2023-02-26T11:02:55.735Z,3.20
2023-02-26T11:05:26.969Z,3.20
2023-02-26T11:07:59.904Z,3.30
2023-02-26T11:10:42.835Z,3.40
2023-02-26T11:13:11.714Z,3.50
2023-02-26T11:15:42.224Z,3.60
2023-02-26T11:18:17.091Z,3.70
2023-02-26T11:20:47.865Z,3.80
2023-02-26T11:23:18.634Z,3.80
2023-02-26T11:25:47.359Z,3.80
2023-02-26T11:28:23.911Z,3.90
2023-02-26T11:30:54.699Z,3.90
2023-02-26T11:33:25.711Z,3.90
2023-02-26T11:35:55.716Z,3.90
2023-02-26T11:38:28.651Z,4.00
2023-02-26T11:40:59.044Z,4.00
2023-02-26T11:43:35.199Z,4.00
2023-02-26T11:46:06.634Z,3.90
2023-02-26T11:48:41.707Z,3.90
2023-02-26T11:51:19.932Z,3.90
2023-02-26T11:53:52.190Z,3.80
2023-02-26T11:56:28.647Z,3.80
2023-02-26T11:58:59.267Z,3.70
2023-02-26T12:01:30.956Z,3.70
2023-02-26T12:04:03.853Z,3.70
2023-02-26T12:06:34.525Z,3.70
2023-02-26T12:09:03.093Z,3.60
2023-02-26T12:12:00.219Z,3.60
2023-02-26T12:14:52.962Z,3.70
2023-02-26T12:17:36.390Z,3.70
2023-02-26T12:20:20.036Z,3.80
2023-02-26T12:23:00.180Z,3.90
2023-02-26T12:25:55.653Z,4.00
2023-02-26T12:28:41.557Z,4.10
2023-02-26T12:31:39.598Z,4.20
2023-02-26T12:34:32.982Z,4.30
2023-02-26T12:37:20.104Z,4.30
2023-02-26T12:40:06.511Z,4.30
2023-02-26T12:42:47.043Z,4.30
2023-02-26T12:45:31.498Z,4.20
2023-02-26T12:48:16.882Z,4.20
2023-02-26T12:50:57.362Z,4.20
2023-02-26T12:53:54.328Z,4.10
2023-02-26T12:56:55.968Z,4.10
2023-02-26T12:59:42.060Z,4.10
2023-02-26T13:02:42.903Z,4.10
2023-02-26T13:05:24.504Z,4.10
2023-02-26T13:08:00.512Z,4.20
2023-02-26T13:10:37.229Z,4.30
2023-02-26T13:13:16.021Z,4.40
2023-02-26T13:16:04.247Z,4.50
2023-02-26T13:18:41.527Z,4.60
2023-02-26T13:21:15.153Z,4.60
2023-02-26T13:23:52.546Z,4.60
2023-02-26T13:26:22.569Z,4.60
2023-02-26T13:28:56.246Z,4.50
2023-02-26T13:31:30.171Z,4.40
2023-02-26T13:34:02.519Z,4.40
2023-02-26T13:36:35.376Z,4.40
2023-02-26T13:39:31.183Z,4.40
2023-02-26T13:42:07.660Z,4.50
2023-02-26T13:44:48.265Z,4.60
2023-02-26T13:47:42.899Z,4.50
2023-02-26T13:50:27.315Z,4.60
2023-02-26T13:52:57.389Z,4.50
2023-02-26T13:55:44.684Z,4.60
2023-02-26T13:58:36.427Z,4.60
2023-02-26T14:01:11.297Z,4.60
2023-02-26T14:03:47.197Z,4.70
2023-02-26T14:06:40.440Z,4.70
2023-02-26T14:09:39.393Z,4.80
2023-02-26T14:12:26.476Z,4.80
2023-02-26T14:15:21.588Z,4.80
2023-02-26T14:17:51.157Z,4.80
2023-02-26T14:20:27.872Z,4.80
2023-02-26T14:23:23.461Z,4.70
2023-02-26T14:25:55.046Z,4.70
2023-02-26T14:28:56.963Z,4.70
2023-02-26T14:31:27.916Z,4.80
2023-02-26T14:34:10.330Z,4.80
2023-02-26T14:36:44.795Z,4.80
2023-02-26T14:39:23.479Z,4.70
2023-02-26T14:41:56.479Z,4.70
2023-02-26T14:44:29.436Z,4.60
2023-02-26T14:47:01.574Z,4.60
2023-02-26T14:49:33.832Z,4.60
2023-02-26T14:52:48.312Z,4.50
2023-02-26T14:55:39.655Z,4.50
2023-02-26T14:58:42.679Z,4.40
2023-02-26T15:01:29.243Z,4.40
2023-02-26T15:04:15.007Z,4.40
2023-02-26T15:07:04.353Z,4.40
2023-02-26T15:09:45.696Z,4.30
2023-02-26T15:12:31.025Z,4.30
2023-02-26T15:15:15.538Z,4.20
2023-02-26T15:17:57.857Z,4.20
2023-02-26T15:20:35.861Z,4.20
2023-02-26T15:23:15.622Z,4.10
2023-02-26T15:25:48.283Z,4.10
2023-02-26T15:28:21.402Z,4.20
2023-02-26T15:30:51.217Z,4.20
2023-02-26T15:33:22.669Z,4.10
2023-02-26T15:35:52.010Z,4.10
2023-02-26T15:38:20.724Z,4.10
2023-02-26T15:40:52.145Z,4.00
2023-02-26T15:43:24.427Z,4.00
2023-02-26T15:45:55.394Z,3.90
2023-02-26T15:48:30.500Z,3.80
2023-02-26T15:51:04.938Z,3.80
2023-02-26T15:53:36.921Z,3.70
2023-02-26T15:56:10.663Z,3.70
2023-02-26T15:58:43.154Z,3.70
2023-02-26T16:01:17.255Z,3.60
2023-02-26T16:03:48.079Z,3.60
2023-02-26T16:06:18.779Z,3.60
2023-02-26T16:08:47.454Z,3.50
2023-02-26T16:11:17.873Z,3.50
2023-02-26T16:13:46.948Z,3.50
2023-02-26T16:16:19.948Z,3.40
2023-02-26T16:18:49.867Z,3.40
2023-02-26T16:21:26.680Z,3.40
2023-02-26T16:23:57.885Z,3.40
2023-02-26T16:26:30.055Z,3.40
2023-02-26T16:29:02.916Z,3.30
2023-02-26T16:31:33.768Z,3.30
2023-02-26T16:34:23.159Z,3.30
2023-02-26T16:36:52.161Z,3.30
2023-02-26T16:39:25.208Z,3.20
2023-02-26T16:42:03.804Z,3.20
2023-02-26T16:44:53.472Z,3.20
2023-02-26T16:47:22.903Z,3.20
2023-02-26T16:49:54.812Z,3.10
2023-02-26T16:52:25.898Z,3.10
2023-02-26T16:54:58.924Z,3.10
2023-02-26T16:57:37.400Z,3.10
2023-02-26T17:00:14.705Z,3.10
2023-02-26T17:02:48.100Z,3.00
2023-02-26T17:05:22.589Z,3.00
2023-02-26T17:07:58.336Z,3.00
2023-02-26T17:10:33.695Z,2.90
2023-02-26T17:13:14.892Z,2.90
2023-02-26T17:15:45.362Z,2.90
2023-02-26T17:18:14.679Z,2.80
2023-02-26T17:20:45.572Z,2.80
2023-02-26T17:23:17.344Z,2.80
2023-02-26T17:25:47.510Z,2.80
2023-02-26T17:28:23.864Z,2.80
2023-02-26T17:30:52.412Z,2.80
2023-02-26T17:33:21.630Z,2.80
2023-02-26T17:35:52.234Z,2.90
2023-02-26T17:38:20.575Z,2.90
2023-02-26T17:40:51.024Z,2.90
2023-02-26T17:43:19.416Z,2.90
2023-02-26T17:45:47.902Z,2.90
2023-02-26T17:48:17.837Z,3.00
2023-02-26T17:50:48.541Z,3.00
2023-02-26T17:53:19.913Z,3.00
2023-02-26T17:55:50.770Z,3.00
2023-02-26T17:58:32.024Z,3.00
2023-02-26T18:01:00.734Z,3.00
2023-02-26T18:03:29.066Z,3.00
2023-02-26T18:05:58.375Z,3.10
2023-02-26T18:08:30.121Z,3.00
2023-02-26T18:10:59.672Z,3.10
2023-02-26T18:13:28.942Z,3.10
2023-02-26T18:15:58.891Z,3.10
2023-02-26T18:18:27.963Z,3.20
2023-02-26T18:20:56.967Z,3.20
2023-02-26T18:23:25.673Z,3.20
2023-02-26T18:25:56.568Z,3.20
2023-02-26T18:28:26.509Z,3.20
2023-02-26T18:30:56.064Z,3.20
2023-02-26T18:33:25.600Z,3.20
2023-02-26T18:35:57.161Z,3.20
2023-02-26T18:38:29.150Z,3.20
2023-02-26T18:40:59.788Z,3.20
2023-02-26T18:43:28.441Z,3.20
2023-02-26T18:46:01.418Z,3.20
2023-02-26T18:48:30.040Z,3.20
2023-02-26T18:50:59.431Z,3.30
2023-02-26T18:53:28.030Z,3.30
2023-02-26T18:55:58.207Z,3.30
2023-02-26T18:58:27.998Z,3.30
2023-02-26T19:00:56.892Z,3.30
2023-02-26T19:03:25.264Z,3.30
2023-02-26T19:06:00.914Z,3.20
2023-02-26T19:08:30.987Z,3.20
2023-02-26T19:10:59.680Z,3.20
2023-02-26T19:13:29.511Z,3.20
2023-02-26T19:15:57.975Z,3.10
2023-02-26T19:18:26.530Z,3.10
2023-02-26T19:20:55.187Z,3.20
2023-02-26T19:23:24.110Z,3.10
2023-02-26T19:25:53.244Z,3.10
2023-02-26T19:28:21.749Z,3.10
2023-02-26T19:30:55.575Z,3.10
2023-02-26T19:33:24.651Z,3.10
2023-02-26T19:35:55.350Z,3.10
2023-02-26T19:38:24.195Z,3.10
2023-02-26T19:40:52.936Z,3.10
2023-02-26T19:43:23.367Z,3.10
2023-02-26T19:45:53.134Z,3.10
2023-02-26T19:48:21.686Z,3.10
2023-02-26T19:50:51.398Z,3.10
2023-02-26T19:53:20.659Z,3.10
2023-02-26T19:55:50.983Z,3.10
2023-02-26T19:58:20.041Z,3.00
2023-02-26T20:00:48.422Z,3.00
2023-02-26T20:03:18.174Z,3.00
2023-02-26T20:05:47.982Z,3.00
2023-02-26T20:08:16.296Z,3.00
2023-02-26T20:10:46.093Z,3.00
2023-02-26T20:13:14.781Z,3.00
2023-02-26T20:15:43.194Z,3.00
2023-02-26T20:18:11.858Z,3.00
2023-02-26T20:20:41.588Z,3.00
2023-02-26T20:23:12.448Z,3.00
2023-02-26T20:25:40.722Z,3.00
2023-02-26T20:28:09.035Z,3.00
2023-02-26T20:30:37.469Z,3.00
2023-02-26T20:33:08.862Z,3.00
2023-02-26T20:35:37.294Z,3.10
2023-02-26T20:38:07.075Z,3.10
2023-02-26T20:40:35.499Z,3.10
2023-02-26T20:43:08.458Z,3.10
2023-02-26T20:45:37.533Z,3.10
2023-02-26T20:48:07.064Z,3.10
2023-02-26T20:50:36.292Z,3.10
2023-02-26T20:53:07.312Z,3.10
2023-02-26T20:55:36.014Z,3.10
2023-02-26T20:58:05.261Z,3.10
2023-02-26T21:00:33.727Z,3.00
2023-02-26T21:03:02.064Z,3.00
2023-02-26T21:05:30.378Z,3.00
2023-02-26T21:07:58.875Z,3.10
2023-02-26T21:10:28.645Z,3.10
2023-02-26T21:12:57.111Z,3.10
2023-02-26T21:15:25.432Z,3.10
2023-02-26T21:17:54.230Z,3.10
2023-02-26T21:20:23.523Z,3.10
2023-02-26T21:22:55.272Z,3.10
2023-02-26T21:25:23.667Z,3.00
2023-02-26T21:27:53.454Z,3.10
2023-02-26T21:30:24.281Z,3.10
2023-02-26T21:32:52.777Z,3.10
2023-02-26T21:35:21.199Z,3.00
2023-02-26T21:37:49.543Z,3.00
2023-02-26T21:40:18.300Z,3.10
2023-02-26T21:42:46.674Z,3.10
2023-02-26T21:45:16.410Z,3.10
2023-02-26T21:47:47.823Z,3.00
2023-02-26T21:50:16.197Z,3.10
2023-02-26T21:52:44.615Z,3.00
2023-02-26T21:55:13.014Z,3.00
2023-02-26T21:57:41.512Z,3.00
2023-02-26T22:00:11.701Z,3.00
2023-02-26T22:02:44.619Z,3.00
2023-02-26T22:05:13.409Z,3.00
2023-02-26T22:07:41.866Z,3.00
2023-02-26T22:10:12.144Z,3.00
2023-02-26T22:12:40.768Z,3.00
2023-02-26T22:15:10.814Z,3.00
2023-02-26T22:17:39.351Z,3.00
2023-02-26T22:20:11.632Z,3.00
2023-02-26T22:22:40.204Z,3.00
2023-02-26T22:25:11.851Z,3.00
2023-02-26T22:27:40.185Z,2.90
2023-02-26T22:30:09.949Z,3.00
2023-02-26T22:32:38.449Z,3.00
2023-02-26T22:35:08.945Z,2.90
2023-02-26T22:37:37.257Z,3.00
2023-02-26T22:40:06.186Z,2.90
2023-02-26T22:42:34.505Z,2.90
2023-02-26T22:45:03.331Z,2.90
2023-02-26T22:47:31.813Z,2.80
2023-02-26T22:50:00.294Z,2.80
2023-02-26T22:52:30.174Z,2.80
2023-02-26T22:54:58.747Z,2.80
2023-02-26T22:57:27.189Z,2.80
2023-02-26T22:59:55.473Z,2.80
2023-02-26T23:02:23.809Z,2.80
2023-02-26T23:04:52.219Z,2.80
2023-02-26T23:07:21.773Z,2.80
2023-02-26T23:09:51.493Z,2.70
2023-02-26T23:12:19.850Z,2.70
2023-02-26T23:14:48.156Z,2.70
2023-02-26T23:17:16.678Z,2.70
2023-02-26T23:19:45.064Z,2.70
2023-02-26T23:22:13.520Z,2.70
2023-02-26T23:24:42.546Z,2.70
2023-02-26T23:27:12.230Z,2.70
2023-02-26T23:29:45.407Z,2.70
2023-02-26T23:32:13.849Z,2.70
2023-02-26T23:34:42.320Z,2.70
2023-02-26T23:37:10.722Z,2.70
2023-02-26T23:39:39.026Z,2.70
2023-02-26T23:42:07.538Z,2.70
2023-02-26T23:44:37.206Z,2.70
2023-02-26T23:47:05.891Z,2.80
2023-02-26T23:49:34.273Z,2.80
2023-02-26T23:52:02.720Z,2.70
2023-02-26T23:54:31.464Z,2.80
2023-02-26T23:56:59.742Z,2.70
2023-02-26T23:59:28.118Z,2.70
